sensor_id;sensor_type;location;lat;lon;timestamp;pressure;altitude;pressure_sealevel;temperature;humidity
17209;BME280;8720;48.488;9.202;2023-02-13T00:00:44;98880.75;;;5.64;59.61
17209;BME280;8720;48.488;9.202;2023-02-13T00:03:12;98886.75;;;5.62;59.56
17209;BME280;8720;48.488;9.202;2023-02-13T00:05:40;98878.00;;;5.58;59.76
17209;BME280;8720;48.488;9.202;2023-02-13T00:08:07;98877.13;;;5.57;59.84
17209;BME280;8720;48.488;9.202;2023-02-13T00:10:36;98880.56;;;5.57;59.88
17209;BME280;8720;48.488;9.202;2023-02-13T00:13:03;98871.72;;;5.48;59.48
17209;BME280;8720;48.488;9.202;2023-02-13T00:15:30;98886.53;;;5.52;59.64
17209;BME280;8720;48.488;9.202;2023-02-13T00:17:58;98875.16;;;5.47;59.84
17209;BME280;8720;48.488;9.202;2023-02-13T00:20:26;98876.09;;;5.51;59.72
17209;BME280;8720;48.488;9.202;2023-02-13T00:22:53;98873.47;;;5.49;59.90
17209;BME280;8720;48.488;9.202;2023-02-13T00:25:20;98877.78;;;5.49;59.75
17209;BME280;8720;48.488;9.202;2023-02-13T00:27:50;98869.91;;;5.46;59.75
17209;BME280;8720;48.488;9.202;2023-02-13T00:30:19;98882.94;;;5.47;59.84
17209;BME280;8720;48.488;9.202;2023-02-13T00:32:46;98880.34;;;5.47;59.83
17209;BME280;8720;48.488;9.202;2023-02-13T00:35:14;98876.84;;;5.45;60.14
17209;BME280;8720;48.488;9.202;2023-02-13T00:37:42;98882.03;;;5.45;59.84
17209;BME280;8720;48.488;9.202;2023-02-13T00:40:10;98884.63;;;5.45;59.99
17209;BME280;8720;48.488;9.202;2023-02-13T00:42:38;98888.03;;;5.44;59.83
17209;BME280;8720;48.488;9.202;2023-02-13T00:45:08;98875.06;;;5.44;59.91
17209;BME280;8720;48.488;9.202;2023-02-13T00:47:35;98885.44;;;5.44;59.93
17209;BME280;8720;48.488;9.202;2023-02-13T00:50:03;98883.72;;;5.45;59.98
17209;BME280;8720;48.488;9.202;2023-02-13T00:52:30;98874.16;;;5.42;60.05
17209;BME280;8720;48.488;9.202;2023-02-13T00:54:58;98881.09;;;5.43;59.86
17209;BME280;8720;48.488;9.202;2023-02-13T00:57:25;98880.25;;;5.44;59.93
17209;BME280;8720;48.488;9.202;2023-02-13T00:59:52;98877.66;;;5.44;59.97
17209;BME280;8720;48.488;9.202;2023-02-13T01:02:21;98877.53;;;5.40;59.86
17209;BME280;8720;48.488;9.202;2023-02-13T01:04:48;98886.19;;;5.40;60.02
17209;BME280;8720;48.488;9.202;2023-02-13T01:07:17;98880.09;;;5.38;60.08
17209;BME280;8720;48.488;9.202;2023-02-13T01:09:45;98881.75;;;5.36;59.91
17209;BME280;8720;48.488;9.202;2023-02-13T01:12:12;98883.41;;;5.33;59.72
17209;BME280;8720;48.488;9.202;2023-02-13T01:14:42;98879.00;;;5.30;60.08
17209;BME280;8720;48.488;9.202;2023-02-13T01:17:09;98889.38;;;5.30;60.06
17209;BME280;8720;48.488;9.202;2023-02-13T01:19:40;98885.88;;;5.28;60.01
17209;BME280;8720;48.488;9.202;2023-02-13T01:22:07;98885.94;;;5.30;59.88
17209;BME280;8720;48.488;9.202;2023-02-13T01:24:35;98885.94;;;5.30;59.91
17209;BME280;8720;48.488;9.202;2023-02-13T01:27:02;98882.38;;;5.26;59.88
17209;BME280;8720;48.488;9.202;2023-02-13T01:29:29;98887.63;;;5.28;60.09
17209;BME280;8720;48.488;9.202;2023-02-13T01:31:57;98884.91;;;5.25;59.92
17209;BME280;8720;48.488;9.202;2023-02-13T01:34:27;98882.31;;;5.25;60.09
17209;BME280;8720;48.488;9.202;2023-02-13T01:36:56;98875.34;;;5.22;59.80
17209;BME280;8720;48.488;9.202;2023-02-13T01:39:24;98873.53;;;5.18;59.91
17209;BME280;8720;48.488;9.202;2023-02-13T01:41:51;98877.78;;;5.16;59.82
17209;BME280;8720;48.488;9.202;2023-02-13T01:44:46;98871.66;;;5.13;59.94
17209;BME280;8720;48.488;9.202;2023-02-13T01:47:22;98867.22;;;5.09;59.95
17209;BME280;8720;48.488;9.202;2023-02-13T01:50:02;98868.03;;;5.08;59.89
17209;BME280;8720;48.488;9.202;2023-02-13T01:52:37;98864.50;;;5.06;59.75
17209;BME280;8720;48.488;9.202;2023-02-13T01:55:07;98861.00;;;5.04;59.78
17209;BME280;8720;48.488;9.202;2023-02-13T01:57:39;98860.06;;;5.02;59.71
17209;BME280;8720;48.488;9.202;2023-02-13T02:00:13;98855.72;;;4.99;59.63
17209;BME280;8720;48.488;9.202;2023-02-13T02:02:50;98860.81;;;4.98;59.87
17209;BME280;8720;48.488;9.202;2023-02-13T02:05:26;98858.16;;;4.95;59.73
17209;BME280;8720;48.488;9.202;2023-02-13T02:07:59;98850.06;;;4.84;59.58
17209;BME280;8720;48.488;9.202;2023-02-13T02:10:27;98858.97;;;4.94;59.71
17209;BME280;8720;48.488;9.202;2023-02-13T02:13:02;98858.94;;;4.92;59.95
17209;BME280;8720;48.488;9.202;2023-02-13T02:15:31;98856.31;;;4.91;59.84
17209;BME280;8720;48.488;9.202;2023-02-13T02:17:58;98844.75;;;4.78;60.03
17209;BME280;8720;48.488;9.202;2023-02-13T02:21:01;98864.88;;;4.88;59.71
17209;BME280;8720;48.488;9.202;2023-02-13T02:24:30;98862.22;;;4.85;59.88
17209;BME280;8720;48.488;9.202;2023-02-13T02:27:45;98856.78;;;4.76;59.77
17209;BME280;8720;48.488;9.202;2023-02-13T02:33:49;98861.72;;;4.69;59.84
17209;BME280;8720;48.488;9.202;2023-02-13T02:36:39;98863.47;;;4.68;59.75
17209;BME280;8720;48.488;9.202;2023-02-13T02:39:23;98873.84;;;4.68;59.86
17209;BME280;8720;48.488;9.202;2023-02-13T02:42:07;98865.09;;;4.65;59.87
17209;BME280;8720;48.488;9.202;2023-02-13T02:44:46;98871.06;;;4.62;59.63
17209;BME280;8720;48.488;9.202;2023-02-13T02:47:24;98857.94;;;4.56;60.02
17209;BME280;8720;48.488;9.202;2023-02-13T02:50:32;98870.91;;;4.57;59.95
17209;BME280;8720;48.488;9.202;2023-02-13T02:53:29;98865.69;;;4.56;59.99
17209;BME280;8720;48.488;9.202;2023-02-13T02:56:05;98870.81;;;4.53;59.83
17209;BME280;8720;48.488;9.202;2023-02-13T02:58:40;98869.03;;;4.52;60.07
17209;BME280;8720;48.488;9.202;2023-02-13T03:01:31;98866.38;;;4.49;60.01
17209;BME280;8720;48.488;9.202;2023-02-13T03:04:24;98869.81;;;4.49;60.14
17209;BME280;8720;48.488;9.202;2023-02-13T03:07:15;98852.28;;;4.39;60.20
17209;BME280;8720;48.488;9.202;2023-02-13T03:09:47;98871.59;;;4.50;60.05
17209;BME280;8720;48.488;9.202;2023-02-13T03:12:40;98879.41;;;4.52;60.43
17209;BME280;8720;48.488;9.202;2023-02-13T03:15:28;98879.41;;;4.52;60.21
17209;BME280;8720;48.488;9.202;2023-02-13T03:17:57;98888.09;;;4.54;60.15
17209;BME280;8720;48.488;9.202;2023-02-13T03:20:51;98885.47;;;4.52;60.35
17209;BME280;8720;48.488;9.202;2023-02-13T03:23:50;98881.09;;;4.51;60.10
17209;BME280;8720;48.488;9.202;2023-02-13T03:26:37;98887.16;;;4.52;60.27
17209;BME280;8720;48.488;9.202;2023-02-13T03:29:40;98894.94;;;4.52;60.31
17209;BME280;8720;48.488;9.202;2023-02-13T03:32:36;98898.31;;;4.49;60.44
17209;BME280;8720;48.488;9.202;2023-02-13T03:35:21;98899.16;;;4.48;60.42
17209;BME280;8720;48.488;9.202;2023-02-13T03:38:17;98899.94;;;4.46;60.52
17209;BME280;8720;48.488;9.202;2023-02-13T03:40:55;98898.28;;;4.48;60.45
17209;BME280;8720;48.488;9.202;2023-02-13T03:43:58;98899.16;;;4.48;60.37
17209;BME280;8720;48.488;9.202;2023-02-13T03:46:34;98906.09;;;4.49;60.28
17209;BME280;8720;48.488;9.202;2023-02-13T03:49:05;98894.03;;;4.50;59.95
17209;BME280;8720;48.488;9.202;2023-02-13T03:51:57;98894.75;;;4.46;60.08
17209;BME280;8720;48.488;9.202;2023-02-13T03:54:31;98900.78;;;4.45;60.10
17209;BME280;8720;48.488;9.202;2023-02-13T03:57:20;98898.09;;;4.42;59.96
17209;BME280;8720;48.488;9.202;2023-02-13T04:00:14;98899.69;;;4.37;59.79
17209;BME280;8720;48.488;9.202;2023-02-13T04:02:56;98900.59;;;4.39;59.88
17209;BME280;8720;48.488;9.202;2023-02-13T04:05:31;98894.50;;;4.37;59.93
17209;BME280;8720;48.488;9.202;2023-02-13T04:08:01;98900.59;;;4.39;59.81
17209;BME280;8720;48.488;9.202;2023-02-13T04:10:33;98898.06;;;4.40;60.04
17209;BME280;8720;48.488;9.202;2023-02-13T04:13:13;98892.84;;;4.39;59.99
17209;BME280;8720;48.488;9.202;2023-02-13T04:15:46;98892.84;;;4.39;60.01
17209;BME280;8720;48.488;9.202;2023-02-13T04:18:20;98893.72;;;4.39;60.03
17209;BME280;8720;48.488;9.202;2023-02-13T04:20:48;98898.91;;;4.39;60.07
17209;BME280;8720;48.488;9.202;2023-02-13T04:23:16;98898.00;;;4.39;59.96
17209;BME280;8720;48.488;9.202;2023-02-13T04:25:46;98901.41;;;4.38;59.80
17209;BME280;8720;48.488;9.202;2023-02-13T04:28:16;98903.03;;;4.34;60.21
17209;BME280;8720;48.488;9.202;2023-02-13T04:30:43;98900.38;;;4.31;60.14
17209;BME280;8720;48.488;9.202;2023-02-13T04:33:10;98913.28;;;4.30;60.15
17209;BME280;8720;48.488;9.202;2023-02-13T04:35:37;98896.72;;;4.25;59.86
17209;BME280;8720;48.488;9.202;2023-02-13T04:38:05;98906.13;;;4.23;59.97
17209;BME280;8720;48.488;9.202;2023-02-13T04:40:32;98904.28;;;4.19;59.90
17209;BME280;8720;48.488;9.202;2023-02-13T04:43:00;98907.56;;;4.13;59.76
17209;BME280;8720;48.488;9.202;2023-02-13T04:45:28;98908.34;;;4.11;60.11
17209;BME280;8720;48.488;9.202;2023-02-13T04:47:57;98905.66;;;4.08;60.22
17209;BME280;8720;48.488;9.202;2023-02-13T04:50:25;98903.00;;;4.05;60.31
17209;BME280;8720;48.488;9.202;2023-02-13T04:52:54;98908.94;;;4.02;59.94
17209;BME280;8720;48.488;9.202;2023-02-13T04:55:21;98911.41;;;3.99;60.19
17209;BME280;8720;48.488;9.202;2023-02-13T04:57:52;98915.69;;;3.97;59.98
17209;BME280;8720;48.488;9.202;2023-02-13T05:00:20;98905.28;;;3.96;60.09
17209;BME280;8720;48.488;9.202;2023-02-13T05:02:50;98924.25;;;3.95;60.00
17209;BME280;8720;48.488;9.202;2023-02-13T05:05:17;98919.78;;;3.91;59.72
17209;BME280;8720;48.488;9.202;2023-02-13T05:07:45;98919.69;;;3.88;59.91
17209;BME280;8720;48.488;9.202;2023-02-13T05:10:12;98922.19;;;3.85;60.11
17209;BME280;8720;48.488;9.202;2023-02-13T05:12:40;98919.44;;;3.80;59.88
17209;BME280;8720;48.488;9.202;2023-02-13T05:15:08;98918.44;;;3.77;59.73
17209;BME280;8720;48.488;9.202;2023-02-13T05:17:36;98921.03;;;3.77;59.96
17209;BME280;8720;48.488;9.202;2023-02-13T05:20:06;98924.44;;;3.74;59.89
17209;BME280;8720;48.488;9.202;2023-02-13T05:22:33;98924.31;;;3.71;59.93
17209;BME280;8720;48.488;9.202;2023-02-13T05:25:18;98928.50;;;3.67;59.97
17209;BME280;8720;48.488;9.202;2023-02-13T05:27:46;98933.66;;;3.66;60.05
17209;BME280;8720;48.488;9.202;2023-02-13T05:30:14;98930.13;;;3.64;59.99
17209;BME280;8720;48.488;9.202;2023-02-13T05:32:40;98925.75;;;3.63;59.89
17209;BME280;8720;48.488;9.202;2023-02-13T05:35:09;98930.88;;;3.61;59.90
17209;BME280;8720;48.488;9.202;2023-02-13T05:37:37;98938.59;;;3.60;59.91
17209;BME280;8720;48.488;9.202;2023-02-13T05:40:05;98927.31;;;3.58;60.02
17209;BME280;8720;48.488;9.202;2023-02-13T05:42:33;98933.44;;;3.60;59.86
17209;BME280;8720;48.488;9.202;2023-02-13T05:45:00;98933.38;;;3.58;59.84
17209;BME280;8720;48.488;9.202;2023-02-13T05:47:27;98935.91;;;3.57;59.98
17209;BME280;8720;48.488;9.202;2023-02-13T05:49:55;98931.63;;;3.57;60.08
17209;BME280;8720;48.488;9.202;2023-02-13T05:52:23;98930.72;;;3.57;59.95
17209;BME280;8720;48.488;9.202;2023-02-13T05:54:51;98929.88;;;3.56;59.94
17209;BME280;8720;48.488;9.202;2023-02-13T05:57:18;98925.50;;;3.55;59.93
17209;BME280;8720;48.488;9.202;2023-02-13T05:59:45;98922.91;;;3.55;60.04
17209;BME280;8720;48.488;9.202;2023-02-13T06:02:13;98919.41;;;3.53;59.93
17209;BME280;8720;48.488;9.202;2023-02-13T06:04:40;98923.75;;;3.54;60.00
17209;BME280;8720;48.488;9.202;2023-02-13T06:07:07;98928.94;;;3.54;60.15
17209;BME280;8720;48.488;9.202;2023-02-13T06:09:36;98921.19;;;3.54;59.78
17209;BME280;8720;48.488;9.202;2023-02-13T06:12:04;98922.03;;;3.55;59.81
17209;BME280;8720;48.488;9.202;2023-02-13T06:14:32;98924.47;;;3.50;59.82
17209;BME280;8720;48.488;9.202;2023-02-13T06:17:00;98930.69;;;3.55;59.86
17209;BME280;8720;48.488;9.202;2023-02-13T06:19:27;98935.84;;;3.55;59.79
17209;BME280;8720;48.488;9.202;2023-02-13T06:21:54;98935.03;;;3.56;59.92
17209;BME280;8720;48.488;9.202;2023-02-13T06:24:21;98939.38;;;3.57;59.78
17209;BME280;8720;48.488;9.202;2023-02-13T06:26:50;98934.19;;;3.57;59.74
17209;BME280;8720;48.488;9.202;2023-02-13T06:29:17;98941.06;;;3.57;59.69
17209;BME280;8720;48.488;9.202;2023-02-13T06:31:45;98936.75;;;3.56;59.79
17209;BME280;8720;48.488;9.202;2023-02-13T06:34:12;98939.31;;;3.56;59.96
17209;BME280;8720;48.488;9.202;2023-02-13T06:36:39;98946.19;;;3.55;59.95
17209;BME280;8720;48.488;9.202;2023-02-13T06:39:08;98938.44;;;3.55;59.87
17209;BME280;8720;48.488;9.202;2023-02-13T06:41:36;98941.03;;;3.55;59.72
17209;BME280;8720;48.488;9.202;2023-02-13T06:44:05;98936.75;;;3.56;59.88
17209;BME280;8720;48.488;9.202;2023-02-13T06:46:33;98936.75;;;3.56;60.00
17209;BME280;8720;48.488;9.202;2023-02-13T06:49:00;98940.47;;;3.89;58.93
17209;BME280;8720;48.488;9.202;2023-02-13T06:51:27;98944.69;;;3.87;59.20
17209;BME280;8720;48.488;9.202;2023-02-13T06:53:55;98944.53;;;3.83;59.33
17209;BME280;8720;48.488;9.202;2023-02-13T06:56:22;98940.13;;;3.80;59.41
17209;BME280;8720;48.488;9.202;2023-02-13T06:58:51;98951.38;;;3.81;59.41
17209;BME280;8720;48.488;9.202;2023-02-13T07:01:20;98954.00;;;3.82;59.46
17209;BME280;8720;48.488;9.202;2023-02-13T07:03:47;98950.66;;;3.85;59.44
17209;BME280;8720;48.488;9.202;2023-02-13T07:06:17;98954.13;;;3.85;59.37
17209;BME280;8720;48.488;9.202;2023-02-13T07:08:44;98961.94;;;3.87;59.52
17209;BME280;8720;48.488;9.202;2023-02-13T07:11:17;98954.16;;;3.87;59.49
17209;BME280;8720;48.488;9.202;2023-02-13T07:13:44;98955.09;;;3.89;59.47
17209;BME280;8720;48.488;9.202;2023-02-13T07:16:12;98948.09;;;3.86;59.74
17209;BME280;8720;48.488;9.202;2023-02-13T07:18:41;98958.72;;;3.94;59.69
17209;BME280;8720;48.488;9.202;2023-02-13T07:21:08;98961.41;;;3.97;59.73
17209;BME280;8720;48.488;9.202;2023-02-13T07:23:35;98960.69;;;4.01;59.67
17209;BME280;8720;48.488;9.202;2023-02-13T07:26:03;98960.78;;;4.04;59.74
17209;BME280;8720;48.488;9.202;2023-02-13T07:28:31;98951.59;;;4.13;59.46
17209;BME280;8720;48.488;9.202;2023-02-13T07:31:03;98956.19;;;4.22;59.38
17209;BME280;8720;48.488;9.202;2023-02-13T07:33:31;98972.91;;;4.31;59.87
17209;BME280;8720;48.488;9.202;2023-02-13T07:36:03;98971.38;;;4.38;60.40
17209;BME280;8720;48.488;9.202;2023-02-13T07:38:32;98969.09;;;4.47;61.02
17209;BME280;8720;48.488;9.202;2023-02-13T07:41:00;98972.16;;;4.62;61.31
17209;BME280;8720;48.488;9.202;2023-02-13T07:43:29;98969.13;;;4.77;61.10
17209;BME280;8720;48.488;9.202;2023-02-13T07:45:58;98968.72;;;4.91;60.98
17209;BME280;8720;48.488;9.202;2023-02-13T07:48:27;98965.66;;;5.06;60.93
17209;BME280;8720;48.488;9.202;2023-02-13T07:51:01;98968.66;;;5.19;60.76
17209;BME280;8720;48.488;9.202;2023-02-13T07:53:29;98975.13;;;5.33;61.04
17209;BME280;8720;48.488;9.202;2023-02-13T07:55:56;98969.28;;;5.42;60.89
17209;BME280;8720;48.488;9.202;2023-02-13T07:58:24;98973.09;;;5.54;60.88
17209;BME280;8720;48.488;9.202;2023-02-13T08:00:52;98958.44;;;5.57;60.97
17209;BME280;8720;48.488;9.202;2023-02-13T08:03:22;98971.78;;;5.70;60.75
17209;BME280;8720;48.488;9.202;2023-02-13T08:05:50;98973.72;;;5.79;60.61
17209;BME280;8720;48.488;9.202;2023-02-13T08:08:19;98980.88;;;5.84;60.49
17209;BME280;8720;48.488;9.202;2023-02-13T08:10:46;98980.13;;;5.90;60.49
17209;BME280;8720;48.488;9.202;2023-02-13T08:13:32;98987.16;;;5.94;60.55
17209;BME280;8720;48.488;9.202;2023-02-13T08:15:59;98964.63;;;5.93;60.49
17209;BME280;8720;48.488;9.202;2023-02-13T08:18:27;98976.00;;;5.98;60.29
17209;BME280;8720;48.488;9.202;2023-02-13T08:20:54;98980.59;;;6.08;60.32
17209;BME280;8720;48.488;9.202;2023-02-13T08:23:23;98979.81;;;6.12;60.34
17209;BME280;8720;48.488;9.202;2023-02-13T08:25:50;98970.44;;;6.17;60.19
17209;BME280;8720;48.488;9.202;2023-02-13T08:28:17;98970.66;;;6.26;60.38
17209;BME280;8720;48.488;9.202;2023-02-13T08:30:45;98967.38;;;6.34;60.40
17209;BME280;8720;48.488;9.202;2023-02-13T08:33:12;98974.47;;;6.40;60.12
17209;BME280;8720;48.488;9.202;2023-02-13T08:35:39;98974.53;;;6.43;60.02
17209;BME280;8720;48.488;9.202;2023-02-13T08:38:08;98959.69;;;6.39;60.06
17209;BME280;8720;48.488;9.202;2023-02-13T08:40:37;98969.53;;;6.52;60.08
17209;BME280;8720;48.488;9.202;2023-02-13T08:43:05;98966.25;;;6.59;60.16
17209;BME280;8720;48.488;9.202;2023-02-13T08:45:34;98956.69;;;6.60;60.04
17209;BME280;8720;48.488;9.202;2023-02-13T08:48:02;98960.38;;;6.69;60.00
17209;BME280;8720;48.488;9.202;2023-02-13T08:50:30;98964.88;;;6.75;59.85
17209;BME280;8720;48.488;9.202;2023-02-13T08:52:58;98962.38;;;6.81;59.97
17209;BME280;8720;48.488;9.202;2023-02-13T08:55:26;98965.09;;;6.87;59.95
17209;BME280;8720;48.488;9.202;2023-02-13T08:57:59;98960.91;;;6.92;60.08
17209;BME280;8720;48.488;9.202;2023-02-13T09:00:27;98965.34;;;6.97;60.17
17209;BME280;8720;48.488;9.202;2023-02-13T09:02:59;98958.47;;;6.99;60.17
17209;BME280;8720;48.488;9.202;2023-02-13T09:05:27;98953.44;;;7.08;60.15
17209;BME280;8720;48.488;9.202;2023-02-13T09:07:54;98958.78;;;7.16;60.29
17209;BME280;8720;48.488;9.202;2023-02-13T09:10:22;98958.03;;;7.21;60.24
17209;BME280;8720;48.488;9.202;2023-02-13T09:12:52;98943.31;;;7.23;60.29
17209;BME280;8720;48.488;9.202;2023-02-13T09:15:20;98954.00;;;7.35;60.27
17209;BME280;8720;48.488;9.202;2023-02-13T09:17:48;98943.69;;;7.42;60.25
17209;BME280;8720;48.488;9.202;2023-02-13T09:20:15;98942.03;;;7.47;60.28
17209;BME280;8720;48.488;9.202;2023-02-13T09:22:43;98941.25;;;7.51;60.24
17209;BME280;8720;48.488;9.202;2023-02-13T09:25:10;98937.84;;;7.53;60.38
17209;BME280;8720;48.488;9.202;2023-02-13T09:27:37;98940.53;;;7.58;60.35
17209;BME280;8720;48.488;9.202;2023-02-13T09:30:06;98938.88;;;7.63;60.26
17209;BME280;8720;48.488;9.202;2023-02-13T09:32:36;98931.19;;;7.69;60.41
17209;BME280;8720;48.488;9.202;2023-02-13T09:35:04;98921.69;;;7.71;60.48
17209;BME280;8720;48.488;9.202;2023-02-13T09:37:32;98933.13;;;7.80;60.50
17209;BME280;8720;48.488;9.202;2023-02-13T09:39:59;98919.22;;;7.80;60.43
17209;BME280;8720;48.488;9.202;2023-02-13T09:42:32;98936.88;;;7.94;60.51
17209;BME280;8720;48.488;9.202;2023-02-13T09:45:05;98930.81;;;7.97;60.42
17209;BME280;8720;48.488;9.202;2023-02-13T09:47:38;98932.63;;;8.01;60.32
17209;BME280;8720;48.488;9.202;2023-02-13T09:50:16;98933.50;;;8.03;60.33
17209;BME280;8720;48.488;9.202;2023-02-13T09:52:46;98925.72;;;8.04;60.49
17209;BME280;8720;48.488;9.202;2023-02-13T09:55:17;98929.25;;;8.08;60.56
17209;BME280;8720;48.488;9.202;2023-02-13T09:57:53;98931.91;;;8.11;60.69
17209;BME280;8720;48.488;9.202;2023-02-13T10:00:32;98934.66;;;8.20;60.54
17209;BME280;8720;48.488;9.202;2023-02-13T10:03:35;98940.00;;;8.24;60.84
17209;BME280;8720;48.488;9.202;2023-02-13T10:06:13;98940.88;;;8.25;60.47
17209;BME280;8720;48.488;9.202;2023-02-13T10:09:03;98937.47;;;8.29;60.55
17209;BME280;8720;48.488;9.202;2023-02-13T10:12:13;98946.22;;;8.34;60.80
17209;BME280;8720;48.488;9.202;2023-02-13T10:14:53;98941.91;;;8.36;60.61
17209;BME280;8720;48.488;9.202;2023-02-13T10:17:31;98942.88;;;8.43;60.65
17209;BME280;8720;48.488;9.202;2023-02-13T10:20:06;98946.44;;;8.48;60.62
17209;BME280;8720;48.488;9.202;2023-02-13T10:22:43;98947.34;;;8.51;60.39
17209;BME280;8720;48.488;9.202;2023-02-13T10:25:18;98952.69;;;8.60;60.38
17209;BME280;8720;48.488;9.202;2023-02-13T10:27:53;98956.28;;;8.65;60.47
17209;BME280;8720;48.488;9.202;2023-02-13T10:30:25;98954.59;;;8.70;60.31
17209;BME280;8720;48.488;9.202;2023-02-13T10:33:01;98947.72;;;8.75;60.36
17209;BME280;8720;48.488;9.202;2023-02-13T10:35:53;98946.03;;;8.80;60.46
17209;BME280;8720;48.488;9.202;2023-02-13T10:38:24;98947.84;;;8.86;60.28
17209;BME280;8720;48.488;9.202;2023-02-13T10:41:05;98921.69;;;8.81;60.25
17209;BME280;8720;48.488;9.202;2023-02-13T10:44:05;98940.13;;;8.95;60.33
17209;BME280;8720;48.488;9.202;2023-02-13T10:46:50;98938.47;;;8.98;60.25
17209;BME280;8720;48.488;9.202;2023-02-13T10:49:36;98934.19;;;9.03;60.22
17209;BME280;8720;48.488;9.202;2023-02-13T10:52:24;98938.59;;;9.10;60.29
17209;BME280;8720;48.488;9.202;2023-02-13T10:55:21;98930.84;;;9.16;60.27
17209;BME280;8720;48.488;9.202;2023-02-13T10:58:07;98924.00;;;9.25;60.26
17209;BME280;8720;48.488;9.202;2023-02-13T11:00:42;98924.97;;;9.33;60.09
17209;BME280;8720;48.488;9.202;2023-02-13T11:03:19;98928.53;;;9.41;60.15
17209;BME280;8720;48.488;9.202;2023-02-13T11:05:48;98922.50;;;9.48;60.06
17209;BME280;8720;48.488;9.202;2023-02-13T11:08:22;98914.75;;;9.57;59.90
17209;BME280;8720;48.488;9.202;2023-02-13T11:10:51;98921.84;;;9.67;59.99
17209;BME280;8720;48.488;9.202;2023-02-13T11:13:21;98916.75;;;9.79;59.95
17209;BME280;8720;48.488;9.202;2023-02-13T11:16:02;98908.13;;;9.92;59.92
17209;BME280;8720;48.488;9.202;2023-02-13T11:18:32;98913.50;;;10.05;59.96
17209;BME280;8720;48.488;9.202;2023-02-13T11:21:07;98911.91;;;10.23;59.84
17209;BME280;8720;48.488;9.202;2023-02-13T11:23:43;98909.41;;;10.36;59.73
17209;BME280;8720;48.488;9.202;2023-02-13T11:26:21;98902.53;;;10.50;59.72
17209;BME280;8720;48.488;9.202;2023-02-13T11:28:53;98902.63;;;10.65;59.66
17209;BME280;8720;48.488;9.202;2023-02-13T11:31:27;98891.34;;;10.80;59.61
17209;BME280;8720;48.488;9.202;2023-02-13T11:33:56;98898.41;;;10.94;59.48
17209;BME280;8720;48.488;9.202;2023-02-13T11:36:28;98892.34;;;11.08;59.32
17209;BME280;8720;48.488;9.202;2023-02-13T11:39:04;98888.91;;;11.19;59.24
17209;BME280;8720;48.488;9.202;2023-02-13T11:41:40;98888.06;;;11.28;59.25
17209;BME280;8720;48.488;9.202;2023-02-13T11:44:24;98883.69;;;11.36;59.24
17209;BME280;8720;48.488;9.202;2023-02-13T11:46:54;98882.84;;;11.44;59.11
17209;BME280;8720;48.488;9.202;2023-02-13T11:49:24;98878.50;;;11.54;58.92
17209;BME280;8720;48.488;9.202;2023-02-13T11:51:54;98874.16;;;11.63;58.65
17209;BME280;8720;48.488;9.202;2023-02-13T11:54:32;98875.97;;;11.72;58.44
17209;BME280;8720;48.488;9.202;2023-02-13T11:57:02;98883.84;;;11.78;58.37
17209;BME280;8720;48.488;9.202;2023-02-13T11:59:44;98875.97;;;11.79;58.39
17209;BME280;8720;48.488;9.202;2023-02-13T12:02:16;98875.97;;;11.88;58.29
17209;BME280;8720;48.488;9.202;2023-02-13T12:04:46;98879.47;;;11.97;58.25
17209;BME280;8720;48.488;9.202;2023-02-13T12:07:19;98875.97;;;12.04;57.86
17209;BME280;8720;48.488;9.202;2023-02-13T12:09:54;98859.38;;;12.03;58.04
17209;BME280;8720;48.488;9.202;2023-02-13T12:12:33;98869.00;;;12.15;57.69
17209;BME280;8720;48.488;9.202;2023-02-13T12:15:15;98868.06;;;12.19;57.49
17209;BME280;8720;48.488;9.202;2023-02-13T12:17:46;98873.34;;;12.22;57.69
17209;BME280;8720;48.488;9.202;2023-02-13T12:20:17;98871.59;;;12.22;57.45
17209;BME280;8720;48.488;9.202;2023-02-13T12:23:01;98882.09;;;12.30;57.68
17209;BME280;8720;48.488;9.202;2023-02-13T12:25:47;98878.56;;;12.32;57.67
17209;BME280;8720;48.488;9.202;2023-02-13T12:28:27;98880.31;;;12.35;57.40
17209;BME280;8720;48.488;9.202;2023-02-13T12:31:20;98876.84;;;12.36;57.57
17209;BME280;8720;48.488;9.202;2023-02-13T12:37:26;98872.44;;;12.42;57.68
17209;BME280;8720;48.488;9.202;2023-02-13T12:40:16;98857.56;;;12.41;57.56
17209;BME280;8720;48.488;9.202;2023-02-13T12:43:10;98862.78;;;12.53;57.40
17209;BME280;8720;48.488;9.202;2023-02-13T12:45:47;98863.66;;;12.58;57.30
17209;BME280;8720;48.488;9.202;2023-02-13T12:48:34;98861.03;;;12.60;56.92
17209;BME280;8720;48.488;9.202;2023-02-13T12:51:24;98854.91;;;12.61;57.13
17209;BME280;8720;48.488;9.202;2023-02-13T12:54:20;98859.25;;;12.63;57.22
17209;BME280;8720;48.488;9.202;2023-02-13T12:57:20;98840.03;;;12.58;57.41
17209;BME280;8720;48.488;9.202;2023-02-13T13:00:21;98856.59;;;12.71;57.04
17209;BME280;8720;48.488;9.202;2023-02-13T13:03:29;98858.38;;;12.72;57.46
17209;BME280;8720;48.488;9.202;2023-02-13T13:06:25;98852.25;;;12.74;57.03
17209;BME280;8720;48.488;9.202;2023-02-13T13:09:26;98856.59;;;12.78;56.90
17209;BME280;8720;48.488;9.202;2023-02-13T13:12:14;98842.56;;;12.76;57.13
17209;BME280;8720;48.488;9.202;2023-02-13T13:14:54;98847.81;;;12.87;56.74
17209;BME280;8720;48.488;9.202;2023-02-13T13:17:43;98845.16;;;12.89;56.58
17209;BME280;8720;48.488;9.202;2023-02-13T13:20:46;98835.56;;;12.88;57.26
17209;BME280;8720;48.488;9.202;2023-02-13T13:23:22;98834.66;;;12.89;56.60
17209;BME280;8720;48.488;9.202;2023-02-13T13:26:01;98823.28;;;12.87;56.46
17209;BME280;8720;48.488;9.202;2023-02-13T13:28:37;98832.03;;;12.92;56.27
17209;BME280;8720;48.488;9.202;2023-02-13T13:31:09;98832.88;;;12.97;56.18
17209;BME280;8720;48.488;9.202;2023-02-13T13:33:42;98832.00;;;13.01;56.14
17209;BME280;8720;48.488;9.202;2023-02-13T13:36:21;98834.63;;;13.04;56.00
17209;BME280;8720;48.488;9.202;2023-02-13T13:39:00;98827.63;;;13.07;56.09
17209;BME280;8720;48.488;9.202;2023-02-13T13:41:39;98830.25;;;13.07;55.74
17209;BME280;8720;48.488;9.202;2023-02-13T13:44:25;98829.34;;;13.08;55.99
17209;BME280;8720;48.488;9.202;2023-02-13T13:47:15;98831.13;;;13.09;55.84
17209;BME280;8720;48.488;9.202;2023-02-13T13:49:51;98824.13;;;13.07;55.79
17209;BME280;8720;48.488;9.202;2023-02-13T13:52:26;98836.38;;;13.11;55.65
17209;BME280;8720;48.488;9.202;2023-02-13T13:54:55;98835.50;;;13.09;55.46
17209;BME280;8720;48.488;9.202;2023-02-13T13:57:27;98840.75;;;13.09;55.57
17209;BME280;8720;48.488;9.202;2023-02-13T14:00:28;98836.34;;;13.08;55.83
17209;BME280;8720;48.488;9.202;2023-02-13T14:03:30;98835.50;;;13.09;56.27
17209;BME280;8720;48.488;9.202;2023-02-13T14:06:06;98836.34;;;13.08;55.49